createdAt,value
2022-11-15T00:02:11.145Z,99.84
2022-11-15T00:04:32.695Z,100.00
2022-11-15T00:06:55.634Z,99.73
2022-11-15T00:09:17.591Z,99.77
2022-11-15T00:11:39.135Z,99.96
2022-11-15T00:14:03.374Z,100.00
2022-11-15T00:16:24.865Z,100.00
2022-11-15T00:18:50.680Z,100.00
2022-11-15T00:21:14.264Z,99.90
2022-11-15T00:24:55.787Z,100.00
2022-11-15T00:27:18.864Z,99.98
2022-11-15T00:29:46.042Z,100.00
2022-11-15T00:32:58.520Z,100.00
2022-11-15T00:35:20.351Z,100.00
2022-11-15T00:37:42.428Z,100.00
2022-11-15T00:40:03.769Z,100.00
2022-11-15T00:42:26.915Z,100.00
2022-11-15T00:44:48.520Z,100.00
2022-11-15T00:47:10.436Z,100.00
2022-11-15T00:49:32.104Z,100.00
2022-11-15T00:51:53.672Z,100.00
2022-11-15T00:54:15.076Z,100.00
2022-11-15T00:56:36.489Z,100.00
2022-11-15T00:58:59.372Z,100.00
2022-11-15T01:01:21.631Z,100.00
2022-11-15T01:03:43.632Z,100.00
2022-11-15T01:06:05.814Z,100.00
2022-11-15T01:08:27.549Z,99.80
2022-11-15T01:10:49.184Z,100.00
2022-11-15T01:13:10.762Z,100.00
2022-11-15T01:15:33.506Z,100.00
2022-11-15T01:17:55.850Z,100.00
2022-11-15T01:20:17.296Z,99.85
2022-11-15T01:22:38.893Z,99.81
2022-11-15T01:25:00.642Z,100.00
2022-11-15T01:27:22.542Z,100.00
2022-11-15T01:29:44.170Z,100.00
2022-11-15T01:32:07.222Z,100.00
2022-11-15T01:34:29.149Z,100.00
2022-11-15T01:36:50.525Z,100.00
2022-11-15T01:39:12.085Z,99.74
2022-11-15T01:41:35.267Z,99.20
2022-11-15T01:43:59.036Z,99.03
2022-11-15T01:46:30.414Z,99.21
2022-11-15T01:48:55.422Z,99.24
2022-11-15T01:51:19.826Z,98.99
2022-11-15T01:53:44.383Z,98.45
2022-11-15T01:56:08.762Z,98.77
2022-11-15T01:58:30.206Z,98.54
2022-11-15T02:00:52.378Z,98.74
2022-11-15T02:03:14.262Z,98.50
2022-11-15T02:05:37.523Z,98.61
2022-11-15T02:07:59.483Z,98.38
2022-11-15T02:18:52.992Z,98.17
2022-11-15T02:21:21.625Z,98.41
2022-11-15T02:24:23.225Z,98.47
2022-11-15T02:27:13.251Z,98.52
2022-11-15T02:29:47.751Z,98.57
2022-11-15T02:32:14.763Z,98.83
2022-11-15T02:34:43.442Z,99.02
2022-11-15T02:37:12.720Z,99.63
2022-11-15T02:39:39.383Z,99.31
2022-11-15T02:42:04.865Z,99.50
2022-11-15T02:44:28.222Z,99.29
2022-11-15T02:47:09.426Z,99.85
2022-11-15T02:49:35.108Z,99.64
2022-11-15T02:51:57.086Z,99.87
2022-11-15T02:54:23.423Z,100.00
2022-11-15T02:56:45.533Z,100.00
2022-11-15T02:59:21.894Z,99.81
2022-11-15T03:01:52.869Z,100.00
2022-11-15T03:04:24.635Z,100.00
2022-11-15T03:06:50.982Z,100.00
2022-11-15T03:09:16.146Z,99.94
2022-11-15T03:11:40.662Z,100.00
2022-11-15T03:14:04.977Z,100.00
2022-11-15T03:16:29.508Z,99.52
2022-11-15T03:18:55.920Z,100.00
2022-11-15T03:21:18.646Z,99.72
2022-11-15T03:23:42.566Z,100.00
2022-11-15T03:26:08.746Z,100.00
2022-11-15T03:28:34.754Z,100.00
2022-11-15T03:30:57.551Z,99.97
2022-11-15T03:33:19.908Z,99.87
2022-11-15T03:35:44.494Z,99.75
2022-11-15T03:38:11.056Z,99.58
2022-11-15T03:40:37.887Z,99.43
2022-11-15T03:43:04.427Z,99.99
2022-11-15T03:45:29.667Z,99.53
2022-11-15T03:47:55.029Z,99.26
2022-11-15T03:55:25.457Z,98.96
2022-11-15T03:57:51.931Z,99.24
2022-11-15T04:00:14.327Z,98.46
2022-11-15T04:02:36.157Z,98.99
2022-11-15T04:04:57.744Z,98.57
2022-11-15T04:07:19.223Z,98.70
2022-11-15T04:10:02.993Z,98.62
2022-11-15T04:12:31.742Z,98.60
2022-11-15T04:15:08.857Z,98.67
2022-11-15T04:17:30.528Z,99.18
2022-11-15T04:20:09.458Z,99.32
2022-11-15T04:22:48.511Z,98.21
2022-11-15T04:25:10.094Z,98.08
2022-11-15T04:27:31.446Z,98.94
2022-11-15T04:29:52.697Z,97.96
2022-11-15T04:32:15.368Z,98.38
2022-11-15T04:34:37.449Z,98.46
2022-11-15T04:37:22.010Z,98.44
2022-11-15T04:39:44.481Z,99.19
2022-11-15T04:42:06.323Z,98.62
2022-11-15T04:44:27.970Z,98.13
2022-11-15T04:46:49.533Z,98.22
2022-11-15T04:49:12.643Z,98.92
2022-11-15T04:51:34.679Z,98.85
2022-11-15T04:53:56.449Z,98.55
2022-11-15T04:56:17.984Z,98.65
2022-11-15T04:58:39.697Z,98.48
2022-11-15T05:01:08.938Z,98.48
2022-11-15T05:03:48.400Z,97.72
2022-11-15T05:06:11.609Z,96.97
2022-11-15T05:08:33.629Z,96.70
2022-11-15T05:10:55.217Z,96.83
2022-11-15T05:13:16.995Z,96.61
2022-11-15T05:15:38.431Z,97.45
2022-11-15T05:18:01.600Z,97.58
2022-11-15T05:20:23.540Z,97.73
2022-11-15T05:22:46.630Z,97.45
2022-11-15T05:25:10.118Z,98.04
2022-11-15T05:27:31.653Z,98.60
2022-11-15T05:29:53.518Z,98.69
2022-11-15T05:32:15.408Z,98.25
2022-11-15T05:34:37.053Z,98.97
2022-11-15T05:36:58.376Z,98.97
2022-11-15T05:39:21.053Z,98.99
2022-11-15T05:41:46.773Z,99.13
2022-11-15T05:44:10.417Z,98.95
2022-11-15T05:46:32.293Z,98.92
2022-11-15T05:48:54.551Z,98.47
2022-11-15T05:51:17.549Z,98.67
2022-11-15T05:53:39.557Z,98.86
2022-11-15T05:56:02.563Z,98.20
2022-11-15T05:58:25.104Z,98.41
2022-11-15T06:00:47.080Z,97.69
2022-11-15T06:03:08.365Z,98.68
2022-11-15T06:05:30.175Z,98.16
2022-11-15T06:07:51.880Z,97.70
2022-11-15T06:10:13.463Z,97.77
2022-11-15T06:12:36.906Z,97.59
2022-11-15T06:14:58.649Z,97.46
2022-11-15T06:17:20.488Z,96.89
2022-11-15T06:19:41.736Z,98.56
2022-11-15T06:22:03.228Z,97.65
2022-11-15T06:24:24.987Z,97.49
2022-11-15T06:26:46.801Z,97.46
2022-11-15T06:29:10.033Z,97.42
2022-11-15T06:31:31.794Z,97.14
2022-11-15T06:33:53.570Z,97.82
2022-11-15T06:36:17.926Z,97.05
2022-11-15T06:38:40.080Z,97.31
2022-11-15T06:41:05.175Z,96.63
2022-11-15T06:43:26.797Z,97.42
2022-11-15T06:45:49.575Z,96.80
2022-11-15T06:48:11.643Z,97.65
2022-11-15T06:50:33.084Z,96.92
2022-11-15T06:52:55.644Z,97.55
2022-11-15T06:55:17.376Z,97.08
2022-11-15T06:57:39.132Z,96.83
2022-11-15T07:00:00.659Z,96.88
2022-11-15T07:02:23.815Z,97.18
2022-11-15T07:04:45.671Z,97.42
2022-11-15T07:07:07.530Z,97.37
2022-11-15T07:09:29.255Z,96.99
2022-11-15T07:11:50.758Z,96.49
2022-11-15T07:14:12.593Z,96.23
2022-11-15T07:16:34.063Z,96.12
2022-11-15T07:18:57.517Z,95.57
2022-11-15T07:21:22.312Z,95.27
2022-11-15T07:23:49.665Z,94.87
2022-11-15T07:26:11.242Z,94.32
2022-11-15T07:28:33.130Z,94.75
2022-11-15T07:30:54.678Z,94.77
2022-11-15T07:33:16.450Z,94.22
2022-11-15T07:35:39.532Z,94.53
2022-11-15T07:38:03.001Z,93.58
2022-11-15T07:40:24.962Z,93.17
2022-11-15T07:42:55.076Z,93.56
2022-11-15T07:45:17.129Z,92.80
2022-11-15T07:47:38.937Z,94.03
2022-11-15T07:50:00.436Z,93.15
2022-11-15T07:52:23.320Z,92.98
2022-11-15T07:54:44.941Z,92.48
2022-11-15T07:57:08.125Z,91.88
2022-11-15T07:59:29.867Z,91.38
2022-11-15T08:01:51.892Z,92.29
2022-11-15T08:04:13.610Z,91.27
2022-11-15T08:06:35.133Z,90.25
2022-11-15T08:08:58.181Z,91.88
2022-11-15T08:11:19.832Z,91.32
2022-11-15T08:13:41.506Z,91.10
2022-11-15T08:16:06.231Z,89.84
2022-11-15T08:18:28.077Z,91.64
2022-11-15T08:20:49.424Z,91.69
2022-11-15T08:23:13.038Z,90.14
2022-11-15T08:25:36.872Z,91.26
2022-11-15T08:27:59.898Z,91.05
2022-11-15T08:30:23.144Z,92.11
2022-11-15T08:32:44.935Z,91.69
2022-11-15T08:35:07.993Z,91.62
2022-11-15T08:37:29.579Z,90.49
2022-11-15T08:39:51.411Z,91.89
2022-11-15T08:42:19.753Z,91.71
2022-11-15T08:44:41.856Z,92.33
2022-11-15T08:47:03.330Z,90.62
2022-11-15T08:49:24.610Z,90.33
2022-11-15T08:51:46.039Z,90.30
2022-11-15T08:54:07.454Z,90.98
2022-11-15T08:56:28.888Z,91.26
2022-11-15T08:58:52.076Z,91.45
2022-11-15T09:01:18.650Z,91.43
2022-11-15T09:03:42.145Z,91.51
2022-11-15T09:06:03.944Z,91.75
2022-11-15T09:08:46.622Z,93.29
2022-11-15T09:11:07.376Z,93.00
2022-11-15T09:13:29.103Z,92.37
2022-11-15T09:15:52.247Z,92.19
2022-11-15T09:18:14.030Z,91.81
2022-11-15T09:20:36.084Z,91.73
2022-11-15T09:23:01.903Z,91.12
2022-11-15T09:25:23.414Z,92.30
2022-11-15T09:27:44.986Z,90.13
2022-11-15T09:30:08.059Z,90.70
2022-11-15T09:32:37.868Z,90.54
2022-11-15T09:35:00.943Z,91.32
2022-11-15T09:37:22.482Z,92.01
2022-11-15T09:39:44.330Z,91.85
2022-11-15T09:42:19.407Z,93.31
2022-11-15T09:44:53.372Z,93.36
2022-11-15T09:47:40.540Z,93.66
2022-11-15T09:50:04.095Z,93.42
2022-11-15T09:52:11.452Z,92.61
2022-11-15T09:54:52.681Z,93.02
2022-11-15T09:56:46.757Z,92.08
2022-11-15T09:58:58.262Z,91.74
2022-11-15T10:01:06.245Z,91.62
2022-11-15T10:03:13.903Z,90.50
2022-11-15T10:05:19.494Z,91.62
2022-11-15T10:07:25.465Z,91.45
2022-11-15T10:09:31.228Z,90.45
2022-11-15T10:11:38.163Z,89.15
2022-11-15T10:13:43.891Z,90.40
2022-11-15T10:15:48.725Z,89.07
2022-11-15T10:18:06.776Z,89.01
2022-11-15T10:20:17.282Z,86.69
2022-11-15T10:22:27.805Z,87.88
2022-11-15T10:24:37.111Z,87.34
2022-11-15T10:26:40.295Z,82.40
2022-11-15T10:28:43.389Z,83.51
2022-11-15T10:30:48.037Z,83.13
2022-11-15T10:32:51.410Z,83.96
2022-11-15T10:34:54.423Z,85.61
2022-11-15T10:37:00.128Z,85.54
2022-11-15T10:39:03.321Z,85.38
2022-11-15T10:41:09.802Z,83.46
2022-11-15T10:43:18.648Z,82.94
2022-11-15T10:45:26.750Z,84.54
2022-11-15T10:47:37.622Z,85.15
2022-11-15T10:49:55.601Z,86.18
2022-11-15T10:52:02.134Z,87.19
2022-11-15T10:54:12.349Z,87.04
2022-11-15T10:56:17.631Z,86.78
2022-11-15T10:58:32.686Z,85.99
2022-11-15T11:00:39.517Z,86.88
2022-11-15T11:02:47.921Z,85.18
2022-11-15T11:04:54.434Z,85.77
2022-11-15T11:07:00.572Z,84.31
2022-11-15T11:09:05.589Z,82.14
2022-11-15T11:11:10.250Z,82.04
2022-11-15T11:13:16.921Z,80.69
2022-11-15T11:15:20.454Z,81.43
2022-11-15T11:17:32.648Z,81.74
2022-11-15T11:19:49.276Z,81.99
2022-11-15T11:21:57.464Z,81.38
2022-11-15T11:24:07.746Z,83.72
2022-11-15T11:26:21.057Z,83.59
2022-11-15T11:28:33.970Z,83.63
2022-11-15T11:30:47.883Z,85.45
2022-11-15T11:33:05.019Z,84.05
2022-11-15T11:35:15.238Z,84.77
2022-11-15T11:37:23.737Z,83.55
2022-11-15T11:39:38.808Z,84.30
2022-11-15T11:41:51.980Z,84.54
2022-11-15T11:44:26.795Z,84.65
2022-11-15T11:46:40.241Z,84.84
2022-11-15T11:48:45.043Z,82.85
2022-11-15T11:50:48.966Z,84.44
2022-11-15T11:53:03.638Z,83.54
2022-11-15T11:55:16.831Z,85.27
2022-11-15T11:57:26.140Z,84.70
2022-11-15T11:59:36.186Z,83.88
2022-11-15T12:01:43.198Z,84.42
2022-11-15T12:03:49.142Z,83.95
2022-11-15T12:05:54.327Z,81.97
2022-11-15T12:08:04.395Z,81.54
2022-11-15T12:10:25.562Z,83.12
2022-11-15T12:12:33.979Z,81.98
2022-11-15T12:14:41.507Z,81.43
2022-11-15T12:16:44.917Z,81.22
2022-11-15T12:18:51.972Z,81.89
2022-11-15T12:20:57.693Z,82.37
2022-11-15T12:23:05.934Z,82.63
2022-11-15T12:25:17.060Z,82.68
2022-11-15T12:27:26.838Z,83.59
2022-11-15T12:29:37.689Z,83.48
2022-11-15T12:31:44.607Z,82.48
2022-11-15T12:33:49.623Z,80.87
2022-11-15T12:36:01.009Z,79.87
2022-11-15T12:38:04.256Z,80.03
2022-11-15T12:40:27.368Z,79.49
2022-11-15T12:42:59.209Z,81.07
2022-11-15T12:45:03.863Z,80.23
2022-11-15T12:47:24.846Z,80.86
2022-11-15T12:49:51.612Z,79.24
2022-11-15T12:52:10.131Z,80.79
2022-11-15T12:54:50.175Z,79.39
2022-11-15T12:57:29.959Z,78.32
2022-11-15T12:59:51.475Z,80.29
2022-11-15T13:01:59.550Z,79.72
2022-11-15T13:04:17.550Z,80.25
2022-11-15T13:06:40.768Z,81.24
2022-11-15T13:08:48.464Z,80.37
2022-11-15T13:10:51.816Z,80.74
2022-11-15T13:13:01.023Z,80.61
2022-11-15T13:15:10.444Z,81.07
2022-11-15T13:17:41.695Z,79.99
2022-11-15T13:19:44.966Z,80.38
2022-11-15T13:22:08.846Z,80.07
2022-11-15T13:24:16.522Z,80.94
2022-11-15T13:26:21.644Z,81.56
2022-11-15T13:28:34.343Z,80.29
2022-11-15T13:30:38.604Z,81.15
2022-11-15T13:32:41.689Z,80.25
2022-11-15T13:34:52.537Z,81.15
2022-11-15T13:36:56.494Z,80.38
2022-11-15T13:39:01.975Z,79.79
2022-11-15T13:41:16.115Z,78.71
2022-11-15T13:43:30.024Z,79.11
2022-11-15T13:45:33.085Z,78.58
2022-11-15T13:47:36.200Z,76.66
2022-11-15T13:49:39.367Z,78.05
2022-11-15T13:51:46.262Z,76.96
2022-11-15T13:53:52.067Z,78.26
2022-11-15T13:55:57.716Z,77.21
2022-11-15T13:58:06.737Z,76.19
2022-11-15T14:00:29.240Z,76.56
2022-11-15T14:02:34.572Z,78.17
2022-11-15T14:04:41.060Z,77.31
2022-11-15T14:06:48.077Z,76.77
2022-11-15T14:09:16.888Z,76.98
2022-11-15T14:11:21.567Z,76.79
2022-11-15T14:13:30.606Z,77.62
2022-11-15T14:15:36.949Z,76.71
2022-11-15T14:17:45.747Z,77.06
2022-11-15T14:19:53.658Z,77.16
2022-11-15T14:22:17.563Z,77.31
2022-11-15T14:24:22.507Z,76.01
2022-11-15T14:26:31.610Z,76.24
2022-11-15T14:28:38.290Z,76.31
2022-11-15T14:30:43.600Z,77.62
2022-11-15T14:32:48.669Z,77.30
2022-11-15T14:34:56.289Z,76.57
2022-11-15T14:36:59.325Z,77.92
2022-11-15T14:39:06.137Z,77.23
2022-11-15T14:41:18.205Z,76.52
2022-11-15T14:43:21.471Z,76.02
2022-11-15T14:45:24.668Z,77.28
2022-11-15T14:47:29.266Z,77.97
2022-11-15T14:49:32.403Z,77.59
2022-11-15T14:51:35.664Z,80.01
2022-11-15T14:53:38.697Z,78.59
2022-11-15T14:55:41.814Z,78.43
2022-11-15T14:57:44.868Z,80.94
2022-11-15T14:59:47.902Z,81.82
2022-11-15T15:01:51.042Z,80.87
2022-11-15T15:03:57.946Z,80.44
2022-11-15T15:06:01.417Z,79.79
2022-11-15T15:08:04.828Z,81.22
2022-11-15T15:12:31.380Z,82.17
2022-11-15T15:14:38.888Z,82.13
2022-11-15T15:16:50.546Z,81.68
2022-11-15T15:18:55.872Z,83.57
2022-11-15T15:21:04.472Z,84.02
2022-11-15T15:23:19.702Z,83.87
2022-11-15T15:25:29.281Z,84.80
2022-11-15T15:27:39.199Z,84.55
2022-11-15T15:29:48.740Z,85.02
2022-11-15T15:31:58.678Z,84.26
2022-11-15T15:34:15.373Z,85.61
2022-11-15T15:36:21.018Z,85.60
2022-11-15T15:38:27.380Z,86.04
2022-11-15T15:40:32.859Z,86.28
2022-11-15T15:42:36.129Z,86.49
2022-11-15T15:44:39.247Z,86.87
2022-11-15T15:46:42.369Z,85.43
2022-11-15T15:48:46.004Z,86.36
2022-11-15T15:50:51.087Z,85.50
2022-11-15T15:52:56.149Z,86.16
2022-11-15T15:54:59.158Z,86.28
2022-11-15T15:57:02.275Z,86.43
2022-11-15T15:59:05.358Z,88.08
2022-11-15T16:01:08.393Z,86.90
2022-11-15T16:03:11.472Z,88.21
2022-11-15T16:05:15.185Z,88.06
2022-11-15T16:07:25.569Z,88.50
2022-11-15T16:09:43.200Z,88.09
2022-11-15T16:11:47.547Z,87.65
2022-11-15T16:13:50.526Z,86.75
2022-11-15T16:15:55.485Z,86.87
2022-11-15T16:17:59.714Z,86.87
2022-11-15T16:20:03.475Z,88.76
2022-11-15T16:22:06.477Z,87.64
2022-11-15T16:24:10.895Z,85.94
2022-11-15T16:26:20.942Z,85.03
2022-11-15T16:28:25.940Z,83.90
2022-11-15T16:30:29.105Z,84.89
2022-11-15T16:32:32.155Z,83.72
2022-11-15T16:34:40.501Z,84.13
2022-11-15T16:36:44.994Z,84.25
2022-11-15T16:38:48.033Z,84.42
2022-11-15T16:40:52.457Z,83.65
2022-11-15T16:42:56.546Z,84.51
2022-11-15T16:44:59.572Z,84.40
2022-11-15T16:47:03.395Z,85.61
2022-11-15T16:49:06.463Z,87.79
2022-11-15T16:51:10.554Z,89.12
2022-11-15T16:53:13.541Z,90.10
2022-11-15T16:55:16.674Z,91.13
2022-11-15T16:57:21.028Z,91.60
2022-11-15T16:59:24.251Z,90.78
2022-11-15T17:01:28.868Z,91.96
2022-11-15T17:03:32.393Z,92.16
2022-11-15T17:05:35.391Z,92.96
2022-11-15T17:07:38.683Z,93.46
2022-11-15T17:09:41.736Z,93.55
2022-11-15T17:11:44.917Z,94.27
2022-11-15T17:13:49.763Z,93.86
2022-11-15T17:15:52.774Z,93.64
2022-11-15T17:17:56.230Z,95.04
2022-11-15T17:19:59.320Z,94.46
2022-11-15T17:22:02.363Z,95.27
2022-11-15T17:24:05.655Z,94.72
2022-11-15T17:26:28.818Z,95.29
2022-11-15T17:28:34.228Z,94.67
2022-11-15T17:30:42.520Z,93.84
2022-11-15T17:32:46.972Z,93.78
2022-11-15T17:34:49.994Z,94.03
2022-11-15T17:36:53.008Z,94.45
2022-11-15T17:38:59.480Z,94.88
2022-11-15T17:41:04.344Z,93.04
2022-11-15T17:43:07.579Z,92.67
2022-11-15T17:45:12.010Z,92.92
2022-11-15T17:47:16.485Z,93.64
2022-11-15T17:49:19.532Z,93.31
2022-11-15T17:51:23.886Z,92.07
2022-11-15T17:53:27.477Z,90.23
2022-11-15T17:55:30.496Z,91.41
2022-11-15T17:57:33.527Z,93.04
2022-11-15T17:59:36.456Z,92.91
2022-11-15T18:01:39.983Z,92.41
2022-11-15T18:03:44.695Z,92.32
2022-11-15T18:05:47.667Z,92.78
2022-11-15T18:07:50.675Z,93.09
2022-11-15T18:09:53.892Z,92.95
2022-11-15T18:11:57.057Z,91.84
2022-11-15T18:14:02.193Z,91.88
2022-11-15T18:16:06.444Z,90.25
2022-11-15T18:18:09.492Z,91.10
2022-11-15T18:20:14.363Z,92.58
2022-11-15T18:22:18.768Z,92.00
2022-11-15T18:24:22.124Z,92.82
2022-11-15T18:26:27.671Z,93.60
2022-11-15T18:28:33.805Z,93.56
2022-11-15T18:30:39.638Z,94.13
2022-11-15T18:32:43.097Z,94.34
2022-11-15T18:34:46.176Z,94.66
2022-11-15T18:36:52.568Z,94.70
2022-11-15T18:38:56.611Z,94.26
2022-11-15T18:41:05.783Z,94.43
2022-11-15T18:43:08.860Z,94.80
2022-11-15T18:45:14.092Z,94.58
2022-11-15T18:47:17.227Z,94.76
2022-11-15T18:49:20.763Z,94.44
2022-11-15T18:51:25.048Z,94.23
2022-11-15T18:53:31.224Z,94.99
2022-11-15T18:55:34.415Z,94.60
2022-11-15T18:57:37.547Z,95.02
2022-11-15T18:59:40.716Z,94.63
2022-11-15T19:01:47.161Z,94.32
2022-11-15T19:03:51.819Z,94.47
2022-11-15T19:06:02.279Z,94.75
2022-11-15T19:08:05.894Z,94.84
2022-11-15T19:10:12.004Z,94.81
2022-11-15T19:12:15.173Z,94.93
2022-11-15T19:14:18.976Z,94.78
2022-11-15T19:16:22.022Z,95.11
2022-11-15T19:18:25.156Z,94.91
2022-11-15T19:20:28.156Z,94.83
2022-11-15T19:22:31.582Z,95.55
2022-11-15T19:24:34.654Z,94.73
2022-11-15T19:26:39.280Z,95.05
2022-11-15T19:28:42.709Z,95.42
2022-11-15T19:30:45.749Z,95.10
2022-11-15T19:32:48.798Z,94.11
2022-11-15T19:34:51.894Z,93.19
2022-11-15T19:36:55.025Z,93.71
2022-11-15T19:38:58.939Z,93.22
2022-11-15T19:41:02.870Z,93.57
2022-11-15T19:43:07.872Z,94.15
2022-11-15T19:45:12.118Z,94.25
2022-11-15T19:47:15.229Z,94.34
2022-11-15T19:49:18.428Z,94.91
2022-11-15T19:51:22.664Z,94.46
2022-11-15T19:53:29.098Z,95.23
2022-11-15T19:55:36.704Z,95.10
2022-11-15T19:57:39.955Z,95.31
2022-11-15T19:59:44.362Z,96.12
2022-11-15T20:01:47.429Z,95.58
2022-11-15T20:03:54.003Z,95.66
2022-11-15T20:06:03.125Z,95.68
2022-11-15T20:08:06.689Z,96.04
2022-11-15T20:10:10.581Z,96.71
2022-11-15T20:12:13.758Z,96.95
2022-11-15T20:14:17.207Z,96.09
2022-11-15T20:16:23.364Z,96.53
2022-11-15T20:18:27.674Z,96.04
2022-11-15T20:20:30.783Z,95.64
2022-11-15T20:22:33.813Z,96.57
2022-11-15T20:24:36.914Z,95.47
2022-11-15T20:26:39.996Z,96.33
2022-11-15T20:28:44.660Z,96.21
2022-11-15T20:30:48.679Z,95.67
2022-11-15T20:32:53.060Z,96.19
2022-11-15T20:34:56.177Z,96.90
2022-11-15T20:36:59.219Z,96.81
2022-11-15T20:39:02.514Z,97.14
2022-11-15T20:41:09.210Z,96.99
2022-11-15T20:43:13.876Z,96.53
2022-11-15T20:45:17.098Z,97.14
2022-11-15T20:47:20.169Z,97.55
2022-11-15T20:49:24.943Z,97.27
2022-11-15T20:51:30.407Z,97.11
2022-11-15T20:53:36.110Z,97.41
2022-11-15T20:55:42.784Z,98.06
2022-11-15T20:57:46.072Z,96.54
2022-11-15T20:59:49.198Z,96.82
2022-11-15T21:01:52.437Z,96.77
2022-11-15T21:03:56.329Z,96.44
2022-11-15T21:06:00.761Z,97.14
2022-11-15T21:08:03.864Z,96.56
2022-11-15T21:10:25.196Z,96.45
2022-11-15T21:12:27.412Z,96.54
2022-11-15T21:14:30.583Z,96.57
2022-11-15T21:16:33.643Z,97.28
2022-11-15T21:18:36.834Z,96.55
2022-11-15T21:20:39.934Z,96.82
2022-11-15T21:22:44.619Z,96.94
2022-11-15T21:24:47.642Z,96.98
2022-11-15T21:26:50.674Z,97.40
2022-11-15T21:28:53.757Z,97.83
2022-11-15T21:30:58.318Z,97.46
2022-11-15T21:33:01.370Z,97.77
2022-11-15T21:35:04.641Z,97.82
2022-11-15T21:37:08.639Z,97.98
2022-11-15T21:39:13.047Z,96.97
2022-11-15T21:41:16.059Z,97.26
2022-11-15T21:43:19.277Z,97.51
2022-11-15T21:45:22.201Z,97.00
2022-11-15T21:47:28.046Z,97.81
2022-11-15T21:49:34.243Z,96.69
2022-11-15T21:51:37.567Z,97.36
2022-11-15T21:53:40.696Z,97.24
2022-11-15T21:55:45.428Z,96.39
2022-11-15T21:57:48.661Z,97.06
2022-11-15T22:00:09.187Z,97.07
2022-11-15T22:02:18.063Z,96.96
2022-11-15T22:04:23.916Z,96.77
2022-11-15T22:06:26.877Z,96.75
2022-11-15T22:08:31.177Z,97.17
2022-11-15T22:10:34.709Z,97.68
2022-11-15T22:12:39.152Z,96.49
2022-11-15T22:14:42.212Z,97.22
2022-11-15T22:16:45.307Z,97.83
2022-11-15T22:18:48.667Z,97.46
2022-11-15T22:20:55.837Z,97.08
2022-11-15T22:22:59.627Z,97.19
2022-11-15T22:25:03.172Z,96.68
2022-11-15T22:27:06.520Z,98.30
2022-11-15T22:29:11.045Z,96.95
2022-11-15T22:31:14.655Z,98.45
2022-11-15T22:33:19.066Z,98.13
2022-11-15T22:35:22.324Z,98.00
2022-11-15T22:37:25.485Z,98.08
2022-11-15T22:39:28.769Z,97.15
2022-11-15T22:41:33.251Z,96.95
2022-11-15T22:43:36.393Z,96.69
2022-11-15T22:45:48.129Z,97.67
2022-11-15T22:47:51.370Z,98.50
2022-11-15T22:49:57.594Z,98.70
2022-11-15T22:52:00.776Z,97.17
2022-11-15T22:54:04.120Z,97.24
2022-11-15T22:56:07.811Z,97.48
2022-11-15T22:58:14.146Z,97.87
2022-11-15T23:00:18.606Z,98.25
2022-11-15T23:02:23.160Z,97.84
2022-11-15T23:04:26.516Z,97.27
2022-11-15T23:06:29.831Z,98.33
2022-11-15T23:08:33.432Z,97.31
2022-11-15T23:10:53.994Z,98.28
2022-11-15T23:13:14.576Z,98.76
2022-11-15T23:15:17.903Z,98.66
2022-11-15T23:17:21.171Z,98.68
2022-11-15T23:19:25.758Z,98.04
2022-11-15T23:21:48.896Z,98.13
2022-11-15T23:23:52.051Z,97.48
2022-11-15T23:25:59.446Z,99.29
2022-11-15T23:28:03.443Z,98.62
2022-11-15T23:30:24.911Z,99.26
2022-11-15T23:32:45.493Z,98.74
2022-11-15T23:34:50.112Z,98.44
2022-11-15T23:36:53.289Z,98.20
2022-11-15T23:38:57.128Z,97.58
2022-11-15T23:41:00.264Z,99.09
2022-11-15T23:43:03.394Z,98.68
2022-11-15T23:45:07.641Z,98.61
2022-11-15T23:47:10.769Z,99.32
2022-11-15T23:49:13.911Z,98.39
2022-11-15T23:51:18.744Z,98.14
2022-11-15T23:53:22.077Z,98.00
2022-11-15T23:55:25.224Z,97.70
2022-11-15T23:57:28.500Z,97.29
2022-11-15T23:59:31.603Z,97.82
